KLOM

Details ICAO KLOM (BBX)
Name Wings Field
Region United States
Timezone America/New_York (UTC-4.0)
Plans Departing 5
Arriving 4
Stats Elevation 301 ft / 92 m (AMSL)
Location 40.137564° -75.265131°
Runways 1
Magnetic Variation 12.113° W
Sunrise 2017-05-27 09:37:43 UTC / 2017-05-27 05:37:43 Local
Sunset 2017-05-28 00:21:43 UTC / 2017-05-27 20:21:43 Local
Advertisement - Login to hide

Runways

ID Width Length Bearing (true) Bearing (mag) Surface Threshold Offset Overrun Length
06 75 ft / 23 m 3,703 ft / 1,129 m 53.00° 65.11° Asphalt 177 ft / 54 m 102 ft / 31 m
24 75 ft / 23 m 3,703 ft / 1,129 m 233.01° 245.12° Asphalt 0 ft / 0 m 0 ft / 0 m

Map

Weather


0- 5 10 15 20 25 30 35+ Temperature / ° C

Clouds and Precipitation
Forecast for 2017-05-27 18:00 UTC. Updated 22 minutes ago

Ground ~20,000 ft ~40,000 ft Winds

METAR

KLOM 271315Z AUTO 27004KT 10SM CLR 18/13 A2992 RMK AO1

TAF

Not found

Frequencies

Recorded 118.92 MHz WX AWOS-3
Clearance 118.55 MHz CLNC DEL
Unicom 123.00 MHz CTAF/UNICOM
Approach 126.85 MHz PHILADELPHIA APP/DEP
Warning: Do not use this data for real-world aviation or navigation. No guarantee of current accuracy is given.